Terminal Aerodrome Forecast
Issued by NWS

Home | Current Version | Previous Version | Graphics & Text | Print | Product List | Glossary On
Versions: 1 2 3 4 5 6 7 8 9 10 11 12 13 14 15 16 17 18 19 20 21 22 23 24 25 26 27 28 29 30 31 32 33 34 35 36 37 38 39 40 41 42 43 44 45 46 47 48
000
FTUS43 KLOT 191728
TAFGYY
TAF
KGYY 191728Z 1918/2018 03009KT P6SM FEW030
     FM200700 14005KT P6SM SCT100 BKN250 PROB30 2009/2015 33015G25KT
      3SM TSRA SCT020 OVC060CB
     FM201500 22010KT P6SM VCSH SCT040 BKN250=

USA.gov is the U.S. government's official web portal to all federal, state and local government web resources and services.